createdAt,value
2022-08-20T00:00:36.600Z,18.30
2022-08-20T00:01:36.564Z,18.27
2022-08-20T00:02:36.498Z,18.31
2022-08-20T00:03:36.460Z,18.30
2022-08-20T00:04:36.415Z,18.27
2022-08-20T00:05:36.377Z,18.33
2022-08-20T00:06:36.352Z,18.27
2022-08-20T00:07:36.297Z,18.31
2022-08-20T00:08:36.245Z,18.31
2022-08-20T00:09:36.699Z,18.33
2022-08-20T00:10:36.167Z,18.30
2022-08-20T00:11:36.130Z,18.23
2022-08-20T00:12:36.081Z,18.24
2022-08-20T00:13:36.041Z,18.24
2022-08-20T00:14:36.004Z,18.15
2022-08-20T00:15:35.979Z,18.06
2022-08-20T00:16:35.918Z,18.12
2022-08-20T00:17:35.874Z,18.19
2022-08-20T00:18:35.842Z,18.11
2022-08-20T00:19:35.795Z,18.12
2022-08-20T00:20:35.751Z,18.13
2022-08-20T00:21:35.725Z,18.11
2022-08-20T00:22:35.669Z,18.08
2022-08-20T00:23:35.622Z,18.16
2022-08-20T00:24:35.581Z,18.11
2022-08-20T00:25:35.542Z,18.08
2022-08-20T00:26:35.504Z,18.12
2022-08-20T00:27:35.480Z,18.02
2022-08-20T00:28:35.418Z,18.09
2022-08-20T00:29:35.380Z,18.00
2022-08-20T00:30:35.335Z,17.97
2022-08-20T00:31:35.290Z,17.95
2022-08-20T00:32:35.249Z,18.06
2022-08-20T00:33:35.243Z,17.98
2022-08-20T00:34:35.166Z,18.02
2022-08-20T00:35:35.130Z,18.03
2022-08-20T00:36:35.080Z,17.97
2022-08-20T00:37:35.040Z,18.02
2022-08-20T00:38:34.998Z,18.02
2022-08-20T00:39:35.035Z,17.98
2022-08-20T00:40:34.912Z,18.06
2022-08-20T00:41:34.877Z,18.00
2022-08-20T00:42:34.832Z,18.03
2022-08-20T00:43:34.789Z,18.05
2022-08-20T00:44:34.747Z,18.03
2022-08-20T00:45:34.719Z,18.06
2022-08-20T00:46:34.666Z,18.06
2022-08-20T00:47:34.634Z,18.03
2022-08-20T00:48:34.581Z,18.02
2022-08-20T00:49:34.542Z,18.03
2022-08-20T00:50:34.522Z,18.03
2022-08-20T00:51:34.462Z,17.97
2022-08-20T00:52:34.413Z,18.03
2022-08-20T00:53:34.374Z,17.98
2022-08-20T00:54:34.334Z,18.05
2022-08-20T00:55:34.290Z,18.12
2022-08-20T00:56:34.270Z,18.11
2022-08-20T00:57:53.326Z,18.06
2022-08-20T00:58:34.164Z,18.05
2022-08-20T00:59:34.119Z,18.11
2022-08-20T01:00:34.075Z,18.08
2022-08-20T01:01:34.085Z,18.19
2022-08-20T01:02:34.010Z,18.19
2022-08-20T01:03:33.958Z,18.18
2022-08-20T01:04:33.925Z,18.28
2022-08-20T01:05:33.870Z,18.19
2022-08-20T01:06:33.834Z,18.37
2022-08-20T01:07:33.968Z,18.31
2022-08-20T01:08:33.745Z,18.26
2022-08-20T01:09:58.194Z,18.30
2022-08-20T01:10:33.662Z,18.41
2022-08-20T01:11:37.218Z,18.41
2022-08-20T01:12:33.580Z,18.27
2022-08-20T01:13:33.550Z,18.33
2022-08-20T01:14:33.496Z,18.28
2022-08-20T01:15:33.459Z,18.28
2022-08-20T01:16:33.412Z,18.31
2022-08-20T01:17:33.393Z,18.26
2022-08-20T01:18:33.331Z,18.37
2022-08-20T01:19:33.289Z,18.36
2022-08-20T01:20:33.245Z,18.37
2022-08-20T01:21:33.202Z,18.45
2022-08-20T01:22:33.161Z,18.45
2022-08-20T01:23:33.147Z,18.42
2022-08-20T01:24:33.085Z,18.58
2022-08-20T01:25:33.037Z,18.53
2022-08-20T01:26:32.994Z,18.55
2022-08-20T01:27:33.668Z,18.49
2022-08-20T01:28:32.949Z,18.51
2022-08-20T01:29:32.872Z,18.51
2022-08-20T01:30:32.831Z,18.55
2022-08-20T01:31:32.794Z,18.55
2022-08-20T01:32:32.746Z,18.66
2022-08-20T01:33:32.713Z,18.73
2022-08-20T01:34:32.676Z,18.76
2022-08-20T01:35:32.623Z,18.78
2022-08-20T01:36:32.580Z,18.78
2022-08-20T01:37:32.541Z,18.83
2022-08-20T01:38:32.497Z,18.85
2022-08-20T01:39:32.536Z,18.89
2022-08-20T01:40:32.419Z,18.88
2022-08-20T01:41:32.373Z,18.91
2022-08-20T01:42:32.334Z,18.98
2022-08-20T01:43:32.315Z,18.96
2022-08-20T01:44:32.247Z,18.96
2022-08-20T01:45:32.231Z,18.98
2022-08-20T01:46:32.165Z,19.04
2022-08-20T01:47:38.593Z,19.00
2022-08-20T01:48:32.083Z,19.05
2022-08-20T01:49:32.040Z,19.04
2022-08-20T01:50:32.001Z,19.04
2022-08-20T01:51:31.975Z,19.09
2022-08-20T01:52:31.921Z,19.07
2022-08-20T01:53:31.876Z,19.08
2022-08-20T01:54:31.849Z,19.09
2022-08-20T01:55:31.797Z,19.07
2022-08-20T01:56:31.756Z,19.11
2022-08-20T01:57:31.726Z,19.07
2022-08-20T01:58:31.669Z,19.11
2022-08-20T01:59:31.626Z,19.19
2022-08-20T02:00:31.586Z,19.23
2022-08-20T02:01:31.617Z,19.23
2022-08-20T02:02:31.503Z,19.27
2022-08-20T02:03:36.557Z,19.29
2022-08-20T02:04:31.426Z,19.20
2022-08-20T02:05:31.379Z,19.26
2022-08-20T02:06:31.345Z,19.30
2022-08-20T02:07:31.313Z,19.23
2022-08-20T02:08:31.255Z,19.30
2022-08-20T02:09:31.391Z,19.39
2022-08-20T02:10:31.732Z,19.45
2022-08-20T02:11:31.138Z,19.38
2022-08-20T02:12:31.106Z,19.38
2022-08-20T02:13:31.058Z,19.34
2022-08-20T02:14:31.025Z,19.24
2022-08-20T02:15:37.215Z,19.19
2022-08-20T02:16:30.932Z,19.19
2022-08-20T02:17:30.886Z,19.20
2022-08-20T02:18:30.847Z,19.32
2022-08-20T02:19:30.806Z,19.35
2022-08-20T02:20:30.762Z,19.32
2022-08-20T02:21:30.745Z,19.35
2022-08-20T02:22:30.682Z,19.37
2022-08-20T02:23:30.652Z,19.39
2022-08-20T02:24:30.603Z,19.45
2022-08-20T02:25:30.556Z,19.37
2022-08-20T02:26:30.528Z,19.37
2022-08-20T02:27:30.655Z,19.35
2022-08-20T02:28:30.435Z,19.39
2022-08-20T02:29:30.407Z,19.38
2022-08-20T02:30:30.352Z,19.56
2022-08-20T02:31:34.698Z,19.55
2022-08-20T02:32:33.788Z,19.52
2022-08-20T02:33:30.329Z,19.56
2022-08-20T02:34:30.190Z,19.59
2022-08-20T02:35:30.150Z,19.56
2022-08-20T02:36:30.109Z,19.49
2022-08-20T02:37:30.069Z,19.56
2022-08-20T02:38:30.030Z,19.45
2022-08-20T02:39:30.005Z,19.55
2022-08-20T02:40:30.832Z,19.52
2022-08-20T02:41:29.904Z,19.42
2022-08-20T02:42:29.867Z,19.55
2022-08-20T02:43:29.826Z,19.55
2022-08-20T02:44:29.782Z,19.45
2022-08-20T02:45:29.742Z,19.53
2022-08-20T02:46:29.708Z,19.39
2022-08-20T02:47:29.678Z,19.48
2022-08-20T02:48:29.620Z,19.55
2022-08-20T02:49:29.577Z,19.45
2022-08-20T02:50:29.538Z,19.49
2022-08-20T02:51:30.459Z,19.52
2022-08-20T02:52:29.451Z,19.52
2022-08-20T02:53:29.434Z,19.53
2022-08-20T02:54:29.421Z,19.48
2022-08-20T02:55:29.329Z,19.53
2022-08-20T02:56:29.293Z,19.56
2022-08-20T02:57:29.262Z,19.48
2022-08-20T02:58:29.212Z,19.59
2022-08-20T02:59:29.190Z,19.56
2022-08-20T03:00:29.128Z,19.56
2022-08-20T03:01:29.100Z,19.55
2022-08-20T03:02:29.045Z,19.57
2022-08-20T03:03:29.003Z,19.63
2022-08-20T03:04:28.968Z,19.55
2022-08-20T03:05:28.943Z,19.63
2022-08-20T03:06:28.882Z,19.63
2022-08-20T03:07:28.840Z,19.59
2022-08-20T03:08:28.803Z,19.57
2022-08-20T03:09:28.757Z,19.64
2022-08-20T03:10:28.715Z,19.64
2022-08-20T03:11:28.687Z,19.60
2022-08-20T03:12:28.649Z,19.57
2022-08-20T03:13:28.596Z,19.59
2022-08-20T03:14:28.561Z,19.67
2022-08-20T03:15:28.680Z,19.72
2022-08-20T03:16:28.478Z,19.70
2022-08-20T03:17:28.432Z,19.70
2022-08-20T03:18:28.391Z,19.67
2022-08-20T03:19:28.354Z,19.62
2022-08-20T03:20:28.306Z,19.56
2022-08-20T03:21:28.292Z,19.59
2022-08-20T03:22:28.225Z,19.64
2022-08-20T03:23:28.190Z,19.57
2022-08-20T03:24:28.150Z,19.66
2022-08-20T03:25:28.103Z,19.71
2022-08-20T03:26:28.066Z,19.74
2022-08-20T03:27:36.120Z,19.77
2022-08-20T03:28:28.007Z,19.77
2022-08-20T03:29:27.939Z,19.81
2022-08-20T03:30:27.899Z,19.75
2022-08-20T03:31:27.860Z,19.85
2022-08-20T03:32:27.815Z,19.87
2022-08-20T03:33:27.777Z,19.89
2022-08-20T03:34:27.757Z,19.96
2022-08-20T03:35:27.699Z,19.85
2022-08-20T03:36:28.793Z,19.90
2022-08-20T03:37:27.615Z,20.00
2022-08-20T03:38:33.171Z,19.90
2022-08-20T03:39:27.531Z,19.92
2022-08-20T03:40:27.512Z,19.89
2022-08-20T03:41:27.480Z,20.00
2022-08-20T03:42:27.406Z,20.03
2022-08-20T03:43:27.371Z,20.12
2022-08-20T03:44:27.332Z,20.04
2022-08-20T03:45:27.288Z,20.04
2022-08-20T03:46:27.276Z,20.04
2022-08-20T03:47:27.247Z,20.07
2022-08-20T03:48:27.164Z,20.03
2022-08-20T03:49:27.126Z,20.08
2022-08-20T03:50:27.094Z,20.14
2022-08-20T03:51:27.042Z,20.15
2022-08-20T03:52:27.036Z,20.19
2022-08-20T03:53:26.962Z,20.15
2022-08-20T03:54:31.519Z,20.17
2022-08-20T03:55:26.895Z,20.08
2022-08-20T03:56:26.838Z,20.03
2022-08-20T03:57:26.806Z,20.04
2022-08-20T03:58:29.914Z,20.07
2022-08-20T03:59:26.738Z,20.07
2022-08-20T04:00:26.694Z,20.10
2022-08-20T04:01:37.046Z,20.04
2022-08-20T04:02:26.594Z,20.24
2022-08-20T04:03:26.555Z,20.18
2022-08-20T04:04:26.514Z,20.26
2022-08-20T04:05:28.388Z,20.19
2022-08-20T04:06:26.437Z,20.19
2022-08-20T04:07:26.394Z,20.19
2022-08-20T04:08:26.354Z,20.21
2022-08-20T04:09:26.312Z,20.27
2022-08-20T04:10:26.274Z,20.33
2022-08-20T04:11:26.243Z,20.26
2022-08-20T04:12:26.209Z,20.33
2022-08-20T04:13:26.146Z,20.29
2022-08-20T04:14:26.109Z,20.33
2022-08-20T04:15:26.067Z,20.34
2022-08-20T04:16:26.025Z,20.36
2022-08-20T04:17:25.985Z,20.34
2022-08-20T04:18:25.972Z,20.33
2022-08-20T04:19:25.905Z,20.40
2022-08-20T04:20:25.869Z,20.37
2022-08-20T04:21:25.824Z,20.36
2022-08-20T04:22:25.786Z,20.33
2022-08-20T04:23:25.745Z,20.34
2022-08-20T04:24:32.067Z,20.36
2022-08-20T04:25:25.669Z,20.26
2022-08-20T04:26:25.624Z,20.30
2022-08-20T04:27:25.590Z,20.27
2022-08-20T04:28:25.540Z,20.32
2022-08-20T04:29:25.499Z,20.24
2022-08-20T04:30:25.477Z,20.24
2022-08-20T04:31:25.613Z,20.15
2022-08-20T04:32:25.380Z,20.15
2022-08-20T04:33:33.687Z,20.15
2022-08-20T04:34:25.296Z,20.04
2022-08-20T04:35:25.281Z,20.04
2022-08-20T04:36:25.211Z,20.00
2022-08-20T04:37:25.171Z,19.93
2022-08-20T04:38:25.131Z,19.94
2022-08-20T04:39:25.092Z,19.85
2022-08-20T04:40:25.051Z,19.96
2022-08-20T04:41:25.049Z,19.82
2022-08-20T04:42:24.972Z,19.79
2022-08-20T04:43:24.926Z,19.84
2022-08-20T04:44:24.888Z,19.78
2022-08-20T04:45:24.846Z,19.84
2022-08-20T04:46:24.808Z,19.78
2022-08-20T04:47:34.490Z,19.81
2022-08-20T04:48:24.722Z,19.89
2022-08-20T04:49:24.683Z,19.79
2022-08-20T04:50:24.648Z,19.82
2022-08-20T04:51:24.642Z,19.78
2022-08-20T04:52:24.558Z,19.79
2022-08-20T04:53:25.956Z,19.77
2022-08-20T04:54:24.481Z,19.75
2022-08-20T04:55:24.437Z,19.84
2022-08-20T04:56:24.506Z,19.92
2022-08-20T04:57:24.354Z,19.94
2022-08-20T04:58:24.319Z,20.02
2022-08-20T04:59:24.286Z,20.04
2022-08-20T05:00:24.233Z,20.08
2022-08-20T05:01:24.345Z,20.26
2022-08-20T05:02:24.153Z,20.21
2022-08-20T05:03:24.111Z,20.24
2022-08-20T05:04:24.092Z,20.29
2022-08-20T05:05:24.026Z,20.30
2022-08-20T05:06:23.992Z,20.36
2022-08-20T05:07:23.948Z,20.37
2022-08-20T05:08:23.905Z,20.39
2022-08-20T05:09:23.863Z,20.34
2022-08-20T05:10:23.854Z,20.44
2022-08-20T05:11:34.220Z,20.49
2022-08-20T05:12:23.743Z,20.49
2022-08-20T05:13:27.288Z,20.53
2022-08-20T05:14:23.662Z,20.50
2022-08-20T05:15:23.621Z,20.42
2022-08-20T05:16:23.596Z,20.53
2022-08-20T05:17:23.540Z,20.56
2022-08-20T05:18:23.498Z,20.60
2022-08-20T05:19:23.463Z,20.58
2022-08-20T05:20:23.421Z,20.60
2022-08-20T05:21:23.378Z,20.55
2022-08-20T05:22:23.363Z,20.48
2022-08-20T05:23:23.300Z,20.46
2022-08-20T05:24:23.257Z,20.48
2022-08-20T05:25:23.217Z,20.44
2022-08-20T05:26:23.177Z,20.37
2022-08-20T05:27:24.884Z,20.26
2022-08-20T05:28:23.117Z,20.34
2022-08-20T05:29:23.052Z,20.40
2022-08-20T05:30:23.010Z,20.40
2022-08-20T05:31:22.979Z,20.39
2022-08-20T05:32:22.933Z,20.37
2022-08-20T05:33:22.891Z,20.40
2022-08-20T05:34:22.872Z,20.50
2022-08-20T05:35:22.812Z,20.44
2022-08-20T05:36:22.774Z,20.48
2022-08-20T05:37:22.733Z,20.42
2022-08-20T05:38:22.686Z,20.48
2022-08-20T05:39:22.647Z,20.50
2022-08-20T05:40:22.658Z,20.39
2022-08-20T05:41:28.505Z,20.50
2022-08-20T05:42:22.525Z,20.48
2022-08-20T05:43:22.481Z,20.49
2022-08-20T05:44:22.443Z,20.49
2022-08-20T05:45:22.401Z,20.53
2022-08-20T05:46:22.373Z,20.49
2022-08-20T05:47:22.318Z,20.33
2022-08-20T05:48:22.281Z,20.37
2022-08-20T05:49:22.236Z,20.32
2022-08-20T05:50:23.529Z,20.21
2022-08-20T05:51:22.155Z,20.17
2022-08-20T05:52:22.143Z,20.14
2022-08-20T05:53:22.077Z,20.08
2022-08-20T05:54:22.032Z,20.00
2022-08-20T05:55:21.990Z,20.08
2022-08-20T05:56:26.909Z,19.99
2022-08-20T05:57:21.933Z,20.03
2022-08-20T05:58:21.866Z,20.00
2022-08-20T05:59:24.125Z,19.90
2022-08-20T06:03:47.295Z,19.75
2022-08-20T06:04:47.231Z,19.72
2022-08-20T06:05:47.185Z,19.63
2022-08-20T06:06:47.586Z,19.59
2022-08-20T06:07:47.099Z,19.56
2022-08-20T06:08:47.058Z,19.59
2022-08-20T06:09:47.028Z,19.52
2022-08-20T06:10:46.978Z,19.55
2022-08-20T06:11:46.928Z,19.52
2022-08-20T06:12:46.893Z,19.47
2022-08-20T06:13:46.848Z,19.44
2022-08-20T06:14:46.818Z,19.48
2022-08-20T06:15:46.769Z,19.62
2022-08-20T06:16:57.233Z,19.57
2022-08-20T06:17:46.680Z,19.60
2022-08-20T06:18:46.641Z,19.59
2022-08-20T06:19:46.939Z,19.60
2022-08-20T06:20:46.557Z,19.57
2022-08-20T06:21:46.512Z,19.74
2022-08-20T06:22:46.482Z,19.67
2022-08-20T06:23:57.261Z,19.74
2022-08-20T06:24:46.388Z,19.79
2022-08-20T06:25:46.361Z,19.81
2022-08-20T06:26:46.316Z,19.81
2022-08-20T06:27:46.273Z,19.81
2022-08-20T06:28:46.248Z,19.92
2022-08-20T06:29:46.182Z,19.94
2022-08-20T06:30:46.145Z,19.94
2022-08-20T06:31:46.099Z,19.96
2022-08-20T06:32:46.065Z,19.92
2022-08-20T06:33:46.020Z,19.93
2022-08-20T06:34:50.019Z,19.93
2022-08-20T06:35:45.939Z,19.90
2022-08-20T06:36:45.897Z,19.99
2022-08-20T06:37:45.861Z,19.96
2022-08-20T06:38:45.817Z,19.89
2022-08-20T06:39:45.794Z,20.00
2022-08-20T06:40:45.746Z,20.07
2022-08-20T06:41:45.690Z,20.02
2022-08-20T06:42:48.553Z,20.00
2022-08-20T06:43:45.606Z,20.00
2022-08-20T06:44:45.568Z,20.03
2022-08-20T06:45:45.529Z,20.03
2022-08-20T06:46:45.501Z,19.93
2022-08-20T06:47:45.441Z,19.94
2022-08-20T06:48:45.405Z,19.99
2022-08-20T06:49:45.360Z,19.99
2022-08-20T06:50:47.104Z,19.94
2022-08-20T06:51:45.297Z,19.85
2022-08-20T06:52:51.764Z,19.81
2022-08-20T06:53:45.195Z,19.78
2022-08-20T06:54:45.153Z,19.77
2022-08-20T06:55:48.546Z,19.82
2022-08-20T06:56:45.071Z,19.74
2022-08-20T06:57:45.075Z,19.79
2022-08-20T06:58:44.994Z,19.82
2022-08-20T06:59:44.945Z,19.81
2022-08-20T07:00:44.962Z,19.75
2022-08-20T07:01:44.914Z,19.64
2022-08-20T07:02:44.822Z,19.64
2022-08-20T07:03:54.548Z,19.72
2022-08-20T07:04:44.745Z,19.66
2022-08-20T07:05:44.713Z,19.57
2022-08-20T07:06:44.661Z,19.72
2022-08-20T07:07:44.617Z,19.70
2022-08-20T07:08:44.605Z,19.67
2022-08-20T07:09:44.554Z,19.71
2022-08-20T07:10:44.491Z,19.77
2022-08-20T07:11:44.449Z,19.79
2022-08-20T07:12:44.412Z,19.74
2022-08-20T07:13:44.372Z,19.81
2022-08-20T07:14:44.333Z,19.77
2022-08-20T07:15:44.308Z,19.75
2022-08-20T07:16:44.246Z,19.81
2022-08-20T07:17:44.206Z,19.71
2022-08-20T07:18:44.167Z,19.72
2022-08-20T07:19:44.121Z,19.77
2022-08-20T07:20:44.097Z,19.85
2022-08-20T07:21:44.036Z,19.84
2022-08-20T07:22:44.002Z,19.81
2022-08-20T07:23:43.964Z,19.78
2022-08-20T07:24:47.307Z,19.77
2022-08-20T07:25:43.883Z,19.70
2022-08-20T07:26:43.836Z,19.84
2022-08-20T07:27:43.805Z,19.94
2022-08-20T07:28:43.749Z,20.00
2022-08-20T07:29:43.708Z,20.17
2022-08-20T07:30:55.867Z,20.27
2022-08-20T07:31:43.634Z,20.32
2022-08-20T07:32:45.240Z,20.42
2022-08-20T07:33:44.522Z,20.46
2022-08-20T07:34:43.710Z,20.63
2022-08-20T07:35:43.467Z,20.58
2022-08-20T07:36:43.435Z,20.63
2022-08-20T07:37:43.384Z,20.73
2022-08-20T07:38:43.341Z,20.78
2022-08-20T07:39:43.342Z,20.75
2022-08-20T07:40:43.272Z,20.86
2022-08-20T07:41:43.232Z,20.88
2022-08-20T07:42:43.180Z,20.89
2022-08-20T07:43:43.157Z,20.86
2022-08-20T07:44:43.105Z,20.86
2022-08-20T07:45:43.060Z,20.78
2022-08-20T07:46:43.026Z,20.82
2022-08-20T07:47:42.986Z,20.85
2022-08-20T07:48:42.963Z,20.86
2022-08-20T07:49:42.905Z,20.92
2022-08-20T07:50:43.172Z,20.95
2022-08-20T07:51:42.817Z,21.03
2022-08-20T07:52:42.780Z,20.98
2022-08-20T07:53:42.762Z,21.07
2022-08-20T07:54:42.700Z,21.05
2022-08-20T07:55:42.658Z,21.03
2022-08-20T07:56:42.616Z,21.03
2022-08-20T07:57:42.575Z,21.05
2022-08-20T07:58:42.542Z,21.03
2022-08-20T07:59:42.508Z,20.88
2022-08-20T08:00:42.509Z,20.96
2022-08-20T08:01:42.414Z,20.83
2022-08-20T08:02:42.378Z,20.83
2022-08-20T08:03:50.451Z,20.90
2022-08-20T08:04:42.296Z,20.92
2022-08-20T08:05:42.282Z,20.96
2022-08-20T08:08:14.226Z,21.05
2022-08-20T08:09:14.181Z,21.11
2022-08-20T08:10:14.140Z,21.14
2022-08-20T08:11:14.119Z,21.28
2022-08-20T08:12:14.062Z,21.35
2022-08-20T08:13:14.025Z,21.43
2022-08-20T08:14:13.982Z,21.47
2022-08-20T08:15:13.949Z,21.48
2022-08-20T08:16:13.901Z,21.60
2022-08-20T08:17:13.881Z,21.66
2022-08-20T08:18:13.822Z,21.70
2022-08-20T08:19:13.809Z,21.70
2022-08-20T08:20:13.754Z,21.83
2022-08-20T08:21:13.709Z,21.89
2022-08-20T08:22:13.661Z,21.84
2022-08-20T08:23:25.449Z,21.85
2022-08-20T08:24:17.962Z,21.78
2022-08-20T08:25:13.560Z,21.81
2022-08-20T08:26:16.178Z,21.88
2022-08-20T08:27:13.463Z,21.80
2022-08-20T08:28:13.427Z,21.81
2022-08-20T08:29:13.387Z,21.85
2022-08-20T08:30:13.414Z,21.83
2022-08-20T08:31:13.315Z,21.92
2022-08-20T08:32:13.265Z,22.00
2022-08-20T08:33:13.236Z,22.07
2022-08-20T08:34:13.185Z,22.18
2022-08-20T08:35:13.153Z,22.22
2022-08-20T08:36:13.127Z,22.12
2022-08-20T08:37:13.078Z,22.16
2022-08-20T08:38:14.460Z,22.18
2022-08-20T08:39:12.997Z,22.21
2022-08-20T08:40:13.027Z,22.36
2022-08-20T08:41:12.916Z,22.40
2022-08-20T08:42:14.233Z,22.43
2022-08-20T08:43:12.843Z,22.43
2022-08-20T08:44:12.843Z,22.46
2022-08-20T08:45:12.763Z,22.51
2022-08-20T08:46:12.716Z,22.31
2022-08-20T08:47:12.682Z,22.23
2022-08-20T08:48:17.858Z,22.18
2022-08-20T08:49:12.603Z,22.14
2022-08-20T08:50:12.593Z,21.96
2022-08-20T08:51:12.532Z,21.94
2022-08-20T08:52:12.492Z,21.85
2022-08-20T08:53:12.442Z,21.78
2022-08-20T08:54:12.405Z,21.70
2022-08-20T08:55:12.369Z,21.68
2022-08-20T08:56:12.342Z,21.77
2022-08-20T08:57:12.287Z,21.72
2022-08-20T08:58:16.913Z,21.74
2022-08-20T08:59:12.209Z,21.78
2022-08-20T09:00:12.181Z,21.83
2022-08-20T09:01:53.332Z,21.94
2022-08-20T09:02:12.170Z,22.08
2022-08-20T09:03:12.050Z,22.18
2022-08-20T09:04:12.011Z,22.16
2022-08-20T09:05:11.969Z,22.31
2022-08-20T09:06:11.929Z,22.26
2022-08-20T09:07:11.888Z,22.28
2022-08-20T09:08:14.971Z,22.31
2022-08-20T09:09:11.811Z,22.36
2022-08-20T09:10:11.776Z,22.41
2022-08-20T09:11:11.742Z,22.52
2022-08-20T09:12:11.739Z,22.55
2022-08-20T09:13:11.663Z,22.51
2022-08-20T09:14:11.614Z,22.44
2022-08-20T09:15:11.578Z,22.47
2022-08-20T09:16:11.535Z,22.41
2022-08-20T09:17:11.505Z,22.43
2022-08-20T09:18:11.495Z,22.61
2022-08-20T09:19:11.426Z,22.62
2022-08-20T09:20:11.380Z,22.65
2022-08-20T09:21:11.344Z,22.86
2022-08-20T09:22:11.309Z,23.08
2022-08-20T09:23:11.269Z,23.34
2022-08-20T09:24:11.249Z,23.56
2022-08-20T09:25:11.190Z,23.84
2022-08-20T09:26:11.147Z,24.07
2022-08-20T09:27:11.112Z,24.32
2022-08-20T09:28:11.076Z,24.40
2022-08-20T09:29:11.034Z,24.51
2022-08-20T09:30:11.007Z,24.79
2022-08-20T09:31:10.964Z,25.01
2022-08-20T09:32:10.943Z,25.14
2022-08-20T09:33:10.886Z,25.39
2022-08-20T09:34:10.846Z,25.61
2022-08-20T09:35:10.813Z,25.71
2022-08-20T09:36:31.884Z,25.99
2022-08-20T09:37:10.733Z,26.10
2022-08-20T09:38:10.719Z,26.30
2022-08-20T09:39:10.663Z,26.56
2022-08-20T09:40:10.668Z,26.66
2022-08-20T09:41:10.591Z,26.83
2022-08-20T09:42:10.552Z,27.05
2022-08-20T09:43:10.556Z,27.16
2022-08-20T09:44:10.479Z,27.19
2022-08-20T09:45:10.882Z,27.30
2022-08-20T09:46:10.411Z,27.57
2022-08-20T09:47:10.369Z,27.94
2022-08-20T09:48:10.663Z,28.08
2022-08-20T09:49:10.494Z,28.25
2022-08-20T09:50:10.265Z,28.35
2022-08-20T09:51:10.231Z,28.41
2022-08-20T09:52:10.197Z,28.57
2022-08-20T09:53:10.158Z,28.97
2022-08-20T09:54:10.125Z,29.59
2022-08-20T09:55:10.098Z,30.23
2022-08-20T09:56:10.055Z,30.83
2022-08-20T09:57:10.018Z,31.39
2022-08-20T09:58:09.984Z,31.95
2022-08-20T09:59:09.955Z,32.53
2022-08-20T10:00:09.925Z,32.90
2022-08-20T10:01:13.866Z,33.03
2022-08-20T10:02:09.917Z,33.12
2022-08-20T10:03:09.821Z,32.88
2022-08-20T10:04:09.786Z,32.72
2022-08-20T10:05:11.609Z,32.34
2022-08-20T10:06:09.721Z,31.77
2022-08-20T10:07:09.714Z,31.28
2022-08-20T10:08:09.661Z,30.96
2022-08-20T10:09:09.623Z,30.62
2022-08-20T10:10:09.594Z,30.21
2022-08-20T10:11:09.562Z,29.86
2022-08-20T10:12:09.528Z,29.49
2022-08-20T10:13:09.513Z,29.24
2022-08-20T10:14:09.456Z,28.83
2022-08-20T10:15:09.450Z,28.60
2022-08-20T10:16:09.414Z,28.37
2022-08-20T10:17:09.363Z,28.27
2022-08-20T10:18:09.317Z,28.28
2022-08-20T10:19:09.285Z,28.13
2022-08-20T10:20:09.261Z,28.03
2022-08-20T10:21:09.234Z,28.08
2022-08-20T10:22:09.179Z,28.06
2022-08-20T10:23:09.143Z,28.10
2022-08-20T10:24:09.120Z,28.13
2022-08-20T10:25:09.071Z,28.27
2022-08-20T10:26:09.041Z,28.33
2022-08-20T10:27:09.033Z,28.38
2022-08-20T10:28:08.968Z,28.53
2022-08-20T10:29:08.941Z,28.43
2022-08-20T10:30:08.907Z,28.30
2022-08-20T10:31:08.865Z,28.23
2022-08-20T10:32:08.833Z,27.88
2022-08-20T10:33:08.820Z,27.61
2022-08-20T10:34:08.759Z,27.38
2022-08-20T10:35:08.722Z,26.67
2022-08-20T10:36:08.686Z,26.27
2022-08-20T10:37:08.654Z,26.16
2022-08-20T10:38:08.615Z,25.85
2022-08-20T10:39:08.612Z,25.43
2022-08-20T10:40:08.621Z,25.19
2022-08-20T10:41:08.506Z,24.97
2022-08-20T10:42:08.470Z,24.34
2022-08-20T10:43:08.430Z,23.99
2022-08-20T10:44:08.399Z,24.00
2022-08-20T10:45:08.375Z,23.88
2022-08-20T10:46:08.323Z,23.74
2022-08-20T10:47:08.287Z,23.84
2022-08-20T10:48:08.242Z,23.82
2022-08-20T10:49:08.209Z,23.56
2022-08-20T10:50:08.167Z,23.56
2022-08-20T10:51:08.162Z,23.59
2022-08-20T10:52:08.091Z,23.66
2022-08-20T10:53:08.077Z,23.59
2022-08-20T10:54:08.241Z,23.81
2022-08-20T10:55:07.976Z,23.99
2022-08-20T10:56:07.943Z,23.99
2022-08-20T10:57:07.906Z,24.00
2022-08-20T10:58:07.865Z,24.09
2022-08-20T10:59:07.845Z,24.03
2022-08-20T11:00:07.788Z,24.10
2022-08-20T11:01:07.764Z,24.01
2022-08-20T11:02:07.754Z,24.14
2022-08-20T11:03:07.679Z,24.32
2022-08-20T11:04:07.641Z,24.48
2022-08-20T11:05:07.626Z,24.66
2022-08-20T11:06:07.564Z,24.99
2022-08-20T11:07:08.439Z,25.16
2022-08-20T11:08:07.493Z,25.43
2022-08-20T11:09:09.742Z,25.73
2022-08-20T11:10:11.785Z,26.13
2022-08-20T11:11:07.399Z,26.37
2022-08-20T11:12:07.344Z,26.86
2022-08-20T11:13:07.308Z,27.28
2022-08-20T11:14:07.274Z,27.44
2022-08-20T11:15:09.501Z,27.85
2022-08-20T11:16:07.218Z,28.22
2022-08-20T11:17:07.164Z,28.41
2022-08-20T11:18:07.129Z,28.77
2022-08-20T11:19:07.095Z,28.78
2022-08-20T11:20:07.064Z,28.90
2022-08-20T11:21:07.036Z,28.90
2022-08-20T11:22:07.010Z,29.02
2022-08-20T11:23:06.961Z,29.02
2022-08-20T11:24:06.925Z,29.10
2022-08-20T11:25:06.899Z,29.05
2022-08-20T11:26:06.858Z,29.03
2022-08-20T11:27:06.822Z,29.05
2022-08-20T11:28:06.809Z,29.05
2022-08-20T11:29:06.761Z,29.03
2022-08-20T11:30:06.732Z,29.00
2022-08-20T11:31:06.690Z,28.94
2022-08-20T11:32:06.687Z,28.94
2022-08-20T11:33:06.622Z,29.10
2022-08-20T11:34:09.466Z,29.12
2022-08-20T11:35:24.367Z,29.25
2022-08-20T11:36:06.525Z,29.44
2022-08-20T11:37:06.493Z,29.71
2022-08-20T11:38:06.484Z,30.08
2022-08-20T11:39:06.424Z,30.56
2022-08-20T11:40:06.483Z,31.07
2022-08-20T11:41:06.372Z,31.64
2022-08-20T11:42:06.332Z,32.30
2022-08-20T11:43:15.060Z,33.15
2022-08-20T11:44:21.043Z,33.66
2022-08-20T11:45:06.233Z,33.92
2022-08-20T11:46:06.207Z,34.22
2022-08-20T11:47:06.204Z,34.63
2022-08-20T11:48:06.142Z,35.05
2022-08-20T11:49:06.118Z,35.47
2022-08-20T11:50:06.090Z,35.49
2022-08-20T11:51:06.055Z,35.31
2022-08-20T11:52:06.028Z,35.31
2022-08-20T11:53:06.016Z,35.50
2022-08-20T11:54:05.968Z,35.93
2022-08-20T11:55:05.940Z,36.25
2022-08-20T11:56:05.927Z,36.08
2022-08-20T11:57:05.887Z,36.00
2022-08-20T11:58:05.860Z,35.87
2022-08-20T11:59:05.990Z,35.81
2022-08-20T12:00:05.801Z,35.69
2022-08-20T12:01:05.775Z,35.42
2022-08-20T12:02:10.275Z,35.13
2022-08-20T12:03:08.727Z,34.94
2022-08-20T12:04:05.688Z,34.33
2022-08-20T12:05:05.682Z,33.97
2022-08-20T12:06:05.625Z,33.58
2022-08-20T12:07:05.593Z,33.13
2022-08-20T12:08:05.570Z,32.90
2022-08-20T12:09:05.536Z,32.75
2022-08-20T12:10:05.509Z,32.51
2022-08-20T12:11:05.496Z,32.45
2022-08-20T12:12:05.443Z,32.37
2022-08-20T12:13:05.426Z,32.26
2022-08-20T12:14:05.383Z,32.31
2022-08-20T12:15:05.350Z,32.29
2022-08-20T12:16:05.335Z,32.27
2022-08-20T12:17:05.286Z,32.27
2022-08-20T12:18:05.253Z,32.26
2022-08-20T12:19:05.222Z,32.24
2022-08-20T12:20:05.186Z,32.00
2022-08-20T12:21:05.154Z,32.05
2022-08-20T12:22:21.354Z,32.05
2022-08-20T12:23:05.095Z,32.09
2022-08-20T12:24:05.059Z,32.08
2022-08-20T12:25:05.031Z,32.05
2022-08-20T12:26:04.995Z,32.05
2022-08-20T12:27:04.963Z,32.27
2022-08-20T12:28:04.956Z,32.39
2022-08-20T12:29:04.895Z,32.93
2022-08-20T12:30:04.864Z,33.32
2022-08-20T12:31:04.837Z,33.82
2022-08-20T12:32:04.802Z,34.38
2022-08-20T12:33:04.773Z,34.53
2022-08-20T12:34:04.756Z,34.81
2022-08-20T12:35:04.713Z,34.93
2022-08-20T12:36:04.675Z,35.22
2022-08-20T12:37:04.647Z,35.59
2022-08-20T12:38:04.620Z,36.20
2022-08-20T12:39:04.587Z,36.99
2022-08-20T12:40:04.687Z,37.82
2022-08-20T12:41:04.529Z,38.25
2022-08-20T12:42:04.502Z,38.53
2022-08-20T12:43:04.472Z,38.36
2022-08-20T12:44:04.441Z,38.63
2022-08-20T12:45:04.415Z,38.84
2022-08-20T12:46:04.399Z,39.14
2022-08-20T12:47:04.359Z,39.52
2022-08-20T12:48:04.334Z,39.75
2022-08-20T12:49:04.308Z,39.56
2022-08-20T12:50:04.378Z,39.17
2022-08-20T12:51:04.246Z,38.92
2022-08-20T12:52:04.223Z,38.48
2022-08-20T12:53:04.196Z,38.25
2022-08-20T12:54:04.173Z,37.68
2022-08-20T12:55:04.155Z,37.04
2022-08-20T12:56:04.115Z,36.55
2022-08-20T12:57:04.080Z,36.28